createdAt,value
2018-04-23T00:00:53.682Z,30.77
2018-04-23T00:03:21.160Z,34.20
2018-04-23T00:05:48.641Z,32.30
2018-04-23T00:08:16.916Z,35.63
2018-04-23T00:10:44.394Z,38.67
2018-04-23T00:13:11.873Z,40.63
2018-04-23T00:15:40.108Z,37.17
2018-04-23T00:18:07.592Z,34.10
2018-04-23T00:20:35.068Z,38.37
2018-04-23T00:23:02.677Z,36.63
2018-04-23T00:25:30.914Z,34.80
2018-04-23T00:30:49.026Z,36.33
2018-04-23T00:33:17.276Z,31.30
2018-04-23T00:35:44.769Z,28.70
2018-04-23T00:45:34.173Z,30.73
2018-04-23T00:48:02.433Z,39.40
2018-04-23T00:50:29.909Z,36.90
2018-04-23T00:53:09.548Z,38.50
2018-04-23T00:55:37.136Z,41.10
2018-04-23T00:58:04.594Z,45.10
2018-04-23T01:00:32.074Z,42.10
2018-04-23T01:02:59.642Z,41.27
2018-04-23T01:05:27.154Z,45.10
2018-04-23T01:07:54.685Z,55.40
2018-04-23T01:10:22.255Z,44.67
2018-04-23T01:12:49.743Z,45.10
2018-04-23T01:15:17.975Z,50.13
2018-04-23T01:17:45.457Z,39.97
2018-04-23T01:20:12.953Z,53.78
2018-04-23T01:22:40.511Z,42.43
2018-04-23T01:25:08.093Z,41.63
2018-04-23T01:27:36.337Z,49.73
2018-04-23T01:30:03.845Z,44.50
2018-04-23T01:32:31.309Z,46.83
2018-04-23T01:34:58.795Z,54.23
2018-04-23T01:37:26.278Z,56.70
2018-04-23T01:39:54.513Z,50.70
2018-04-23T01:42:22.025Z,48.87
2018-04-23T01:44:49.574Z,54.10
2018-04-23T01:47:17.064Z,53.10
2018-04-23T01:49:44.543Z,50.40
2018-04-23T01:52:12.805Z,48.90
2018-04-23T01:54:40.392Z,56.97
2018-04-23T01:57:07.947Z,49.63
2018-04-23T01:59:35.429Z,47.90
2018-04-23T02:02:02.899Z,49.67
2018-04-23T02:04:30.371Z,51.43
2018-04-23T02:06:57.926Z,55.67
2018-04-23T02:09:25.514Z,54.27
2018-04-23T02:11:52.997Z,57.83
2018-04-23T02:14:20.461Z,60.10
2018-04-23T02:16:47.953Z,59.27
2018-04-23T02:19:16.220Z,55.80
2018-04-23T02:21:43.705Z,56.10
2018-04-23T02:24:11.958Z,57.20
2018-04-23T02:26:39.453Z,58.43
2018-04-23T02:29:08.350Z,62.13
2018-04-23T02:31:36.591Z,75.53
2018-04-23T02:34:04.094Z,68.67
2018-04-23T02:36:31.577Z,67.33
2018-04-23T02:38:59.079Z,68.97
2018-04-23T02:41:26.557Z,77.78
2018-04-23T02:43:54.032Z,77.20
2018-04-23T02:46:21.501Z,80.70
2018-04-23T02:48:49.014Z,84.43
2018-04-23T02:51:16.493Z,88.70
2018-04-23T02:53:44.762Z,80.95
2018-04-23T02:56:12.802Z,83.40
2018-04-23T02:58:40.289Z,78.75
2018-04-23T03:01:07.790Z,87.62
2018-04-23T03:03:35.287Z,89.60
2018-04-23T03:06:03.547Z,88.68
2018-04-23T03:08:31.018Z,91.80
2018-04-23T03:10:58.609Z,91.47
2018-04-23T03:13:26.164Z,98.72
2018-04-23T03:15:53.739Z,98.97
2018-04-23T03:18:21.201Z,94.80
2018-04-23T03:20:48.695Z,98.93
2018-04-23T03:23:16.258Z,89.15
2018-04-23T03:25:43.830Z,94.32
2018-04-23T03:28:11.298Z,89.72
2018-04-23T03:30:38.765Z,86.03
2018-04-23T03:33:06.226Z,87.00
2018-04-23T03:35:33.706Z,79.07
2018-04-23T03:38:01.195Z,76.35
2018-04-23T03:40:29.547Z,71.25
2018-04-23T03:42:57.040Z,64.47
2018-04-23T03:45:24.590Z,55.12
2018-04-23T03:47:52.162Z,57.10
2018-04-23T03:50:19.652Z,49.55
2018-04-23T03:52:47.229Z,51.83
2018-04-23T03:55:14.694Z,49.07
2018-04-23T03:57:42.191Z,58.85
2018-04-23T04:00:10.426Z,54.53
2018-04-23T04:02:37.902Z,56.65
2018-04-23T04:05:05.386Z,58.75
2018-04-23T04:07:32.893Z,58.95
2018-04-23T04:10:00.355Z,57.62
2018-04-23T04:12:39.658Z,57.17
2018-04-23T04:15:19.052Z,52.50
2018-04-23T04:20:58.577Z,46.00
2018-04-23T04:23:26.057Z,47.47
2018-04-23T04:25:53.531Z,40.47
2018-04-23T04:28:21.012Z,43.10
2018-04-23T04:30:48.475Z,37.27
2018-04-23T04:33:15.952Z,43.65
2018-04-23T04:35:43.484Z,40.22
2018-04-23T04:38:10.920Z,37.80
2018-04-23T04:40:39.171Z,41.37
2018-04-23T04:43:06.791Z,40.03
2018-04-23T04:45:35.033Z,40.45
2018-04-23T04:48:02.607Z,38.08
2018-04-23T04:50:30.189Z,42.10
2018-04-23T04:52:57.641Z,37.83
2018-04-23T04:55:25.113Z,45.00
2018-04-23T04:57:52.592Z,41.90
2018-04-23T05:00:20.080Z,40.50
2018-04-23T05:02:47.641Z,41.20
2018-04-23T05:05:15.205Z,39.25
2018-04-23T05:07:42.659Z,38.47
2018-04-23T05:10:10.148Z,38.28
2018-04-23T05:12:37.709Z,34.33
2018-04-23T05:15:05.280Z,36.47
2018-04-23T05:17:32.756Z,33.10
2018-04-23T05:20:00.222Z,29.02
2018-04-23T05:22:27.724Z,30.80
2018-04-23T05:24:55.268Z,27.90
2018-04-23T05:27:22.852Z,29.65
2018-04-23T05:29:50.397Z,30.07
2018-04-23T05:32:17.863Z,30.55
2018-04-23T05:34:45.360Z,24.40
2018-04-23T05:37:12.827Z,26.45
2018-04-23T05:39:40.290Z,25.62
2018-04-23T05:42:07.792Z,31.57
2018-04-23T05:44:36.034Z,27.95
2018-04-23T05:47:03.530Z,26.77
2018-04-23T05:49:31.084Z,30.05
2018-04-23T05:51:58.548Z,24.70
2018-04-23T05:54:26.014Z,27.77
2018-04-23T05:56:53.586Z,29.48
2018-04-23T05:59:21.068Z,27.90
2018-04-23T06:01:48.645Z,28.50
2018-04-23T06:04:16.134Z,28.73
2018-04-23T06:06:44.369Z,28.97
2018-04-23T06:09:11.841Z,26.75
2018-04-23T06:11:39.337Z,23.83
2018-04-23T06:14:06.948Z,29.80
2018-04-23T06:16:35.184Z,27.20
2018-04-23T06:19:02.655Z,28.90
2018-04-23T06:21:30.138Z,26.02
2018-04-23T06:23:57.605Z,27.37
2018-04-23T06:26:25.158Z,29.77
2018-04-23T06:28:52.744Z,28.23
2018-04-23T06:31:20.303Z,30.17
2018-04-23T06:33:47.784Z,26.30
2018-04-23T06:36:15.249Z,25.52
2018-04-23T06:38:42.729Z,23.13
2018-04-23T06:41:10.300Z,27.48
2018-04-23T06:43:37.770Z,20.37
2018-04-23T06:46:05.355Z,23.92
2018-04-23T06:48:33.618Z,23.27
2018-04-23T06:51:01.074Z,27.97
2018-04-23T06:53:28.548Z,20.45
2018-04-23T06:55:56.026Z,22.33
2018-04-23T06:58:23.521Z,18.95
2018-04-23T07:00:51.077Z,25.00
2018-04-23T07:03:18.531Z,21.40
2018-04-23T07:05:46.122Z,23.27
2018-04-23T07:08:14.399Z,23.80
2018-04-23T07:10:41.890Z,28.67
2018-04-23T07:13:09.456Z,22.50
2018-04-23T07:15:37.006Z,24.00
2018-04-23T07:18:04.583Z,25.33
2018-04-23T07:20:32.053Z,23.27
2018-04-23T07:22:59.571Z,24.75
2018-04-23T07:25:27.790Z,20.27
2018-04-23T07:27:55.273Z,21.20
2018-04-23T07:30:22.738Z,22.92
2018-04-23T07:32:50.226Z,22.08
2018-04-23T07:35:17.713Z,20.23
2018-04-23T07:37:45.259Z,18.55
2018-04-23T07:40:12.742Z,20.27
2018-04-23T07:42:40.199Z,18.77
2018-04-23T07:45:07.682Z,21.37
2018-04-23T07:47:35.154Z,20.15
2018-04-23T07:50:02.630Z,20.77
2018-04-23T07:52:30.123Z,19.48
2018-04-23T07:54:58.389Z,16.42
2018-04-23T07:57:25.846Z,17.70
2018-04-23T07:59:53.363Z,17.33
2018-04-23T08:02:21.571Z,16.02
2018-04-23T08:04:49.060Z,17.65
2018-04-23T08:07:16.530Z,16.67
2018-04-23T08:09:44.002Z,16.45
2018-04-23T08:12:11.511Z,17.27
2018-04-23T08:14:38.983Z,16.35
2018-04-23T08:17:07.276Z,17.30
2018-04-23T08:19:35.524Z,14.50
2018-04-23T08:22:03.104Z,17.23
2018-04-23T08:24:30.673Z,16.87
2018-04-23T08:26:58.136Z,13.93
2018-04-23T08:29:25.609Z,17.65
2018-04-23T08:31:53.099Z,17.60
2018-04-23T08:34:21.336Z,19.62
2018-04-23T08:36:48.931Z,14.98
2018-04-23T08:39:16.378Z,16.90
2018-04-23T08:41:43.846Z,16.08
2018-04-23T08:44:11.323Z,15.93
2018-04-23T08:46:38.777Z,15.82
2018-04-23T08:49:06.250Z,15.95
2018-04-23T08:51:33.743Z,13.90
2018-04-23T08:54:01.190Z,16.03
2018-04-23T08:56:28.666Z,13.50
2018-04-23T08:58:56.117Z,13.20
2018-04-23T09:01:23.678Z,14.43
2018-04-23T09:03:51.185Z,14.30
2018-04-23T09:06:18.757Z,16.30
2018-04-23T09:08:46.258Z,15.45
2018-04-23T09:11:13.824Z,14.63
2018-04-23T09:13:41.312Z,13.20
2018-04-23T09:16:09.531Z,14.50
2018-04-23T09:18:37.053Z,14.48
2018-04-23T09:21:04.615Z,13.75
2018-04-23T09:23:32.197Z,13.70
2018-04-23T09:25:59.677Z,14.00
2018-04-23T09:28:27.913Z,11.50
2018-04-23T09:30:55.399Z,12.90
2018-04-23T09:33:22.887Z,12.90
2018-04-23T09:35:50.361Z,15.10
2018-04-23T09:38:17.834Z,10.77
2018-04-23T09:40:45.317Z,10.90
2018-04-23T09:43:13.581Z,10.55
2018-04-23T09:45:41.042Z,11.18
2018-04-23T09:48:08.520Z,10.00
2018-04-23T09:50:35.984Z,14.15
2018-04-23T09:53:03.473Z,9.55
2018-04-23T09:55:30.968Z,8.83
2018-04-23T09:57:58.486Z,11.70
2018-04-23T10:03:16.679Z,9.75
2018-04-23T10:05:44.159Z,10.98
2018-04-23T10:08:12.369Z,10.50
2018-04-23T10:10:40.617Z,10.73
2018-04-23T10:13:08.085Z,10.70
2018-04-23T10:15:35.582Z,10.43
2018-04-23T10:18:03.046Z,10.38
2018-04-23T10:20:31.333Z,8.80
2018-04-23T10:22:58.813Z,10.10
2018-04-23T10:25:26.411Z,8.82
2018-04-23T10:27:53.934Z,9.98
2018-04-23T10:30:21.412Z,9.65
2018-04-23T10:32:50.397Z,9.55
2018-04-23T10:35:17.870Z,12.15
2018-04-23T10:37:45.351Z,9.20
2018-04-23T10:40:13.615Z,8.63
2018-04-23T10:42:41.089Z,9.90
2018-04-23T10:45:08.586Z,9.35
2018-04-23T10:47:36.139Z,9.60
2018-04-23T10:50:03.616Z,10.88
2018-04-23T10:52:31.069Z,8.48
2018-04-23T10:54:58.555Z,9.53
2018-04-23T10:57:26.007Z,11.15
2018-04-23T10:59:54.247Z,10.15
2018-04-23T11:02:22.467Z,8.65
2018-04-23T11:04:49.941Z,10.45
2018-04-23T11:07:17.418Z,9.63
2018-04-23T11:09:44.895Z,9.13
2018-04-23T11:12:12.348Z,8.70
2018-04-23T11:14:39.810Z,11.00
2018-04-23T11:17:07.312Z,9.05
2018-04-23T11:19:34.762Z,7.47
2018-04-23T11:22:02.241Z,7.45
2018-04-23T11:24:29.711Z,10.98
2018-04-23T11:26:57.159Z,8.80
2018-04-23T11:29:24.617Z,9.60
2018-04-23T11:31:52.098Z,7.45
2018-04-23T11:34:19.572Z,8.13
2018-04-23T11:36:47.056Z,9.70
2018-04-23T11:39:14.527Z,9.35
2018-04-23T11:41:41.994Z,11.02
2018-04-23T11:44:09.474Z,9.30
2018-04-23T11:46:36.944Z,10.30
2018-04-23T11:49:04.422Z,10.27
2018-04-23T11:51:31.872Z,8.93
2018-04-23T11:53:59.360Z,8.38
2018-04-23T11:56:27.585Z,9.35
2018-04-23T11:58:55.820Z,9.30
2018-04-23T12:01:23.274Z,9.55
2018-04-23T12:03:50.740Z,9.77
2018-04-23T12:06:18.221Z,13.05
2018-04-23T12:08:45.702Z,10.05
2018-04-23T12:11:13.176Z,9.38
2018-04-23T12:13:40.627Z,9.38
2018-04-23T12:16:08.111Z,9.10
2018-04-23T12:18:35.577Z,8.98
2018-04-23T12:21:03.064Z,8.82
2018-04-23T12:23:30.619Z,9.10
2018-04-23T12:25:58.105Z,8.55
2018-04-23T12:28:25.582Z,11.48
2018-04-23T12:30:53.076Z,10.10
2018-04-23T12:33:21.313Z,8.57
2018-04-23T12:35:48.770Z,9.07
2018-04-23T12:38:16.223Z,10.52
2018-04-23T12:40:43.696Z,11.00
2018-04-23T12:43:11.172Z,9.18
2018-04-23T12:45:38.651Z,9.30
2018-04-23T12:48:06.124Z,10.32
2018-04-23T12:50:33.593Z,9.33
2018-04-23T12:53:01.058Z,9.45
2018-04-23T12:55:28.526Z,9.82
2018-04-23T12:57:56.008Z,9.43
2018-04-23T13:00:23.481Z,11.93
2018-04-23T13:02:50.973Z,9.80
2018-04-23T13:05:18.426Z,9.80
2018-04-23T13:07:45.887Z,9.60
2018-04-23T13:10:13.419Z,9.73
2018-04-23T13:12:41.664Z,9.63
2018-04-23T13:15:09.143Z,9.60
2018-04-23T13:17:36.597Z,9.35
2018-04-23T13:20:04.059Z,9.55
2018-04-23T13:22:31.506Z,9.88
2018-04-23T13:24:58.996Z,10.15
2018-04-23T13:27:26.489Z,11.80
2018-04-23T13:29:53.965Z,9.15
2018-04-23T13:32:21.429Z,8.70
2018-04-23T13:34:48.909Z,10.35
2018-04-23T13:37:16.364Z,9.80
2018-04-23T13:39:43.837Z,9.13
2018-04-23T13:42:11.303Z,9.70
2018-04-23T13:44:38.770Z,10.68
2018-04-23T13:47:06.265Z,9.95
2018-04-23T13:49:34.505Z,9.30
2018-04-23T13:52:01.978Z,8.23
2018-04-23T13:54:29.466Z,9.65
2018-04-23T13:56:57.048Z,10.65
2018-04-23T13:59:25.225Z,9.65
2018-04-23T14:01:52.701Z,9.43
2018-04-23T14:04:20.146Z,9.77
2018-04-23T14:06:47.633Z,9.52
2018-04-23T14:09:15.114Z,9.20
2018-04-23T14:11:42.671Z,10.80
2018-04-23T14:14:10.236Z,11.82
2018-04-23T14:16:37.806Z,9.07
2018-04-23T14:19:05.259Z,9.25
2018-04-23T14:21:32.765Z,9.70
2018-04-23T14:24:00.272Z,9.18
2018-04-23T14:26:27.898Z,12.02
2018-04-23T14:28:55.345Z,9.30
2018-04-23T14:31:22.804Z,8.88
2018-04-23T14:33:50.304Z,9.10
2018-04-23T14:36:17.822Z,8.98
2018-04-23T14:38:46.051Z,9.25
2018-04-23T14:41:13.522Z,8.48
2018-04-23T14:43:40.991Z,8.63
2018-04-23T14:46:08.448Z,8.48
2018-04-23T14:48:35.911Z,8.47
2018-04-23T14:51:03.417Z,7.75
2018-04-23T14:53:31.017Z,8.60
2018-04-23T14:55:59.274Z,7.82
2018-04-23T14:58:26.736Z,9.18
2018-04-23T15:00:54.213Z,8.70
2018-04-23T15:03:21.675Z,7.03
2018-04-23T15:05:49.137Z,7.00
2018-04-23T15:08:17.346Z,7.10
2018-04-23T15:10:44.801Z,7.72
2018-04-23T15:13:12.285Z,9.52
2018-04-23T15:15:39.860Z,6.47
2018-04-23T15:21:00.100Z,9.00
2018-04-23T15:23:27.640Z,11.80
2018-04-23T15:25:55.123Z,8.93
2018-04-23T15:28:22.714Z,8.57
2018-04-23T15:30:50.194Z,8.10
2018-04-23T15:36:09.182Z,8.45
2018-04-23T15:38:36.773Z,7.50
2018-04-23T15:41:05.032Z,6.70
2018-04-23T15:43:33.310Z,8.43
2018-04-23T15:46:00.774Z,7.05
2018-04-23T15:48:28.257Z,8.18
2018-04-23T15:53:46.778Z,9.45
2018-04-23T15:56:15.018Z,6.68
2018-04-23T15:58:42.515Z,7.22
2018-04-23T16:01:09.971Z,6.68
2018-04-23T16:03:37.438Z,9.25
2018-04-23T16:06:04.894Z,7.20
2018-04-23T16:08:32.365Z,7.12
2018-04-23T16:10:59.834Z,6.87
2018-04-23T16:13:27.287Z,7.65
2018-04-23T16:15:54.743Z,6.60
2018-04-23T16:18:22.423Z,6.50
2018-04-23T16:20:49.890Z,5.80
2018-04-23T16:23:17.380Z,4.90
2018-04-23T16:25:44.865Z,4.60
2018-04-23T16:28:12.353Z,5.03
2018-04-23T16:30:39.848Z,5.55
2018-04-23T16:33:08.074Z,4.95
2018-04-23T16:35:35.550Z,8.05
2018-04-23T16:38:03.026Z,5.67
2018-04-23T16:40:30.516Z,5.30
2018-04-23T16:42:58.075Z,7.60
2018-04-23T16:45:25.533Z,5.75
2018-04-23T16:47:53.020Z,5.70
2018-04-23T16:50:20.478Z,5.00
2018-04-23T16:52:47.978Z,4.28
2018-04-23T16:55:16.258Z,5.53
2018-04-23T16:57:43.813Z,6.37
2018-04-23T17:00:11.298Z,4.75
2018-04-23T17:02:38.752Z,6.60
2018-04-23T17:05:06.230Z,6.60
2018-04-23T17:07:33.675Z,6.32
2018-04-23T17:10:01.143Z,6.63
2018-04-23T17:12:28.622Z,5.62
2018-04-23T17:14:56.082Z,6.00
2018-04-23T17:17:23.541Z,5.28
2018-04-23T17:19:51.016Z,4.97
2018-04-23T17:22:18.510Z,6.32
2018-04-23T17:27:36.824Z,6.32
2018-04-23T17:30:04.297Z,5.50
2018-04-23T17:32:31.762Z,5.03
2018-04-23T17:34:59.257Z,4.45
2018-04-23T17:37:27.486Z,5.60
2018-04-23T17:39:54.961Z,4.30
2018-04-23T17:42:22.432Z,5.95
2018-04-23T17:44:49.907Z,6.03
2018-04-23T17:47:17.359Z,7.78
2018-04-23T17:49:44.819Z,5.10
2018-04-23T17:52:12.293Z,7.32
2018-04-23T17:57:30.400Z,5.15
2018-04-23T17:59:57.884Z,4.53
2018-04-23T18:02:25.338Z,5.53
2018-04-23T18:04:52.849Z,6.90
2018-04-23T18:07:21.074Z,6.72
2018-04-23T18:09:50.302Z,6.93
2018-04-23T18:12:17.793Z,6.95
2018-04-23T18:14:45.254Z,7.37
2018-04-23T18:20:04.216Z,7.40
2018-04-23T18:22:31.704Z,7.00
2018-04-23T18:24:59.173Z,6.93
2018-04-23T18:27:26.639Z,6.47
2018-04-23T18:29:54.078Z,6.72
2018-04-23T18:32:21.570Z,5.15
2018-04-23T18:34:49.026Z,5.03
2018-04-23T18:37:16.469Z,4.85
2018-04-23T18:39:44.695Z,9.05
2018-04-23T18:42:12.183Z,9.30
2018-04-23T18:44:39.715Z,4.75
2018-04-23T18:47:08.811Z,6.62
2018-04-23T18:49:37.033Z,4.85
2018-04-23T18:52:04.484Z,4.97
2018-04-23T18:54:31.928Z,6.17
2018-04-23T18:57:00.160Z,6.35
2018-04-23T18:59:27.624Z,6.28
2018-04-23T19:04:45.807Z,5.07
2018-04-23T19:07:13.278Z,7.05
2018-04-23T19:09:40.740Z,5.68
2018-04-23T19:12:08.236Z,5.03
2018-04-23T19:14:35.697Z,5.93
2018-04-23T19:17:03.154Z,4.30
2018-04-23T19:19:30.620Z,7.32
2018-04-23T19:21:58.193Z,4.70
2018-04-23T19:24:25.565Z,6.00
2018-04-23T19:26:53.018Z,6.75
2018-04-23T19:29:20.475Z,5.32
2018-04-23T19:31:48.725Z,6.70
2018-04-23T19:34:16.180Z,5.95
2018-04-23T19:36:43.635Z,5.18
2018-04-23T19:39:11.126Z,9.30
2018-04-23T19:41:38.579Z,5.20
2018-04-23T19:44:06.047Z,7.05
2018-04-23T19:46:33.485Z,5.70
2018-04-23T19:49:00.963Z,4.87
2018-04-23T19:51:28.418Z,8.73
2018-04-23T19:53:56.653Z,5.07
2018-04-23T19:56:24.152Z,4.80
2018-04-23T20:01:42.637Z,7.75
2018-04-23T20:04:10.116Z,7.50
2018-04-23T20:06:37.596Z,7.00
2018-04-23T20:09:05.813Z,5.70
2018-04-23T20:11:33.291Z,4.20
2018-04-23T20:14:00.742Z,7.13
2018-04-23T20:16:28.219Z,7.25
2018-04-23T20:18:55.683Z,4.30
2018-04-23T20:21:23.180Z,7.53
2018-04-23T20:23:50.655Z,7.50
2018-04-23T20:26:18.140Z,10.43
2018-04-23T20:28:45.604Z,6.25
2018-04-23T20:31:13.068Z,6.20
2018-04-23T20:33:40.550Z,7.22
2018-04-23T20:36:08.069Z,5.25
2018-04-23T20:38:36.289Z,7.57
2018-04-23T20:41:03.746Z,8.50
2018-04-23T20:43:31.209Z,9.15
2018-04-23T20:45:58.666Z,5.25
2018-04-23T20:48:26.113Z,8.20
2018-04-23T20:50:54.376Z,7.22
2018-04-23T20:53:21.828Z,7.27
2018-04-23T20:55:49.304Z,8.30
2018-04-23T20:58:16.774Z,6.00
2018-04-23T21:00:44.276Z,7.05
2018-04-23T21:03:12.516Z,7.53
2018-04-23T21:11:20.839Z,7.82
2018-04-23T21:13:48.309Z,5.65
2018-04-23T21:16:15.772Z,6.93
2018-04-23T21:18:43.238Z,7.72
2018-04-23T21:21:10.717Z,7.50
2018-04-23T21:23:38.194Z,8.20
2018-04-23T21:26:06.209Z,6.20
2018-04-23T21:28:33.675Z,6.40
2018-04-23T21:31:01.308Z,6.00
2018-04-23T21:33:28.871Z,7.20
2018-04-23T21:35:56.343Z,6.97
2018-04-23T21:38:23.803Z,7.78
2018-04-23T21:40:51.271Z,8.23
2018-04-23T21:43:18.721Z,7.10
2018-04-23T21:45:46.187Z,6.15
2018-04-23T21:48:13.659Z,6.85
2018-04-23T21:50:41.144Z,7.20
2018-04-23T21:53:08.625Z,7.90
2018-04-23T21:55:36.104Z,6.82
2018-04-23T21:58:03.576Z,5.65
2018-04-23T22:00:31.156Z,8.48
2018-04-23T22:02:58.706Z,9.35
2018-04-23T22:05:26.256Z,9.15
2018-04-23T22:07:54.450Z,10.13
2018-04-23T22:10:21.906Z,7.82
2018-04-23T22:12:49.377Z,7.72
2018-04-23T22:15:16.838Z,8.95
2018-04-23T22:17:44.333Z,8.20
2018-04-23T22:20:11.790Z,10.20
2018-04-23T22:22:39.281Z,7.50
2018-04-23T22:25:06.849Z,6.65
2018-04-23T22:27:34.318Z,8.30
2018-04-23T22:30:01.777Z,11.82
2018-04-23T22:32:29.261Z,6.75
2018-04-23T22:34:56.764Z,7.72
2018-04-23T22:37:24.998Z,9.80
2018-04-23T22:39:52.472Z,8.23
2018-04-23T22:42:19.974Z,8.98
2018-04-23T22:44:47.438Z,10.07
2018-04-23T22:47:15.021Z,8.63
2018-04-23T22:49:42.581Z,7.47
2018-04-23T22:52:10.060Z,10.30
2018-04-23T22:54:37.629Z,9.43
2018-04-23T22:57:05.082Z,10.00
2018-04-23T22:59:32.573Z,8.73
2018-04-23T23:02:00.137Z,7.50
2018-04-23T23:04:27.695Z,8.38
2018-04-23T23:06:55.173Z,15.05
2018-04-23T23:09:22.645Z,7.97
2018-04-23T23:11:50.119Z,11.02
2018-04-23T23:14:17.678Z,7.20
2018-04-23T23:16:45.265Z,8.57
2018-04-23T23:19:14.271Z,7.62
2018-04-23T23:21:41.730Z,11.18
2018-04-23T23:24:09.202Z,7.10
2018-04-23T23:26:36.669Z,8.55
2018-04-23T23:29:04.117Z,7.30
2018-04-23T23:31:31.607Z,8.65
2018-04-23T23:33:59.083Z,9.20
2018-04-23T23:36:26.543Z,7.10
2018-04-23T23:38:54.010Z,9.53
2018-04-23T23:41:21.461Z,8.57
2018-04-23T23:43:48.949Z,7.70
2018-04-23T23:46:16.419Z,6.80
2018-04-23T23:48:43.916Z,9.35
2018-04-23T23:51:11.382Z,8.57
2018-04-23T23:53:38.924Z,8.40
2018-04-23T23:56:06.400Z,7.85
2018-04-23T23:58:33.884Z,9.85
